Forside
METAR-TAF:

METAR-TAF

Lufthavne :

Chicago Rockford International Airport

Rockford, Illinois, USA

Breddekreds: 42-11-34N, længdekreds: 089-05-36W, højde: 224 m

Aktuelle vejr

Denne rapport blev lavet for 2 timer og 12 minutter siden, kl. 06:54 UTC
Vind stille
Temperatur 18°C
Fugtighed 88%
Tryk 1020 hPa
Sigt: 16.1 km
Brudte skyer i en højde af 14000 ft

METAR: KRFD 310654Z 00000KT 10SM BKN140 18/16 A3011 RMK AO2 SLP193 T01830156 $

Tid: 04:06 (09:06 UTC)

Vejrudsigter

Denne rapport blev lavet for 36 minutter siden, kl. 08:30 UTC
Foreløbig gælder fra 31 på 09 UTC til 01 på 06 UTC
Vind 3 kt fra varierende retninger
Sigt: 10 km
Brudte skyer i en højde af 12000 ft
Fra 31 på 1500 UTC
Vind 8 kt fra vestsydvest
Sigt: 10 km
Spredte skyer i en højde af 5000 ft
Spredte skyer i en højde af 25000 ft
Fra 01 på 0300 UTC
Vind 7 kt fra vest
Sigt: 10 km
Spredte skyer i en højde af 5000 ft
Brudte skyer i en højde af 10000 ft

TAF: KRFD 310830Z 3109/0106 VRB03KT P6SM BKN120 FM311500 25008KT P6SM SCT050 SCT250 FM010300 27007KT P6SM SCT050 BKN100

Vejrobservationer og prognoser fra mere end 4000 lufthavne (METAR og TAF).

De gule og røde prikker repræsenterer de meteorologiske stationer.

Flyt musen over at se navnet på stationen.

Så klik over at se vejr observationer og prognoser.

At skifte det kort: Klik på de grønne knapper med et sort kors for at zoome ind; på den grønne knap med en bindestreg for at zoome ud; eller på de grønne pile for tilstødende kort.


METAR-TAF: